Time;durP1;ratioP1;P1;durP2;ratioP2;P2;SDS_P1;SDS_P2;PMS_P1;PMS_P2;Temp;Humidity;BMP_temperature;BMP_pressure;BME280_temperature;BME280_humidity;BME280_pressure;Samples;Min_cycle;Max_cycle;Signal;HPM_P1;HPM_P2
2022/07/27 05:05:47;;;;;;;5.30;4.90;;;17.90;99.90;;;;;;4923389;28;20479;-91
2022/07/27 05:08:12;;;;;;;5.07;4.67;;;18.10;99.90;;;;;;4929929;28;20450;-90
2022/07/27 05:10:40;;;;;;;4.93;4.33;;;18.30;99.90;;;;;;4929294;28;20812;-92
2022/07/27 05:13:05;;;;;;;5.13;4.73;;;18.40;99.90;;;;;;4923597;28;20183;-91
2022/07/27 05:15:31;;;;;;;7.93;7.20;;;18.50;99.90;;;;;;4921910;28;20923;-91
2022/07/27 05:17:57;;;;;;;6.23;5.73;;;18.60;99.90;;;;;;4927427;28;20183;-93
2022/07/27 05:20:52;;;;;;;6.50;5.80;;;18.80;99.90;;;;;;4921984;28;20343;-93
2022/07/27 05:23:20;;;;;;;6.50;5.33;;;18.70;99.90;;;;;;4916804;28;20963;-93
2022/07/27 05:25:46;;;;;;;7.27;5.90;;;18.60;99.90;;;;;;4925581;28;20434;-93
2022/07/27 05:28:15;;;;;;;5.17;4.87;;;18.50;99.90;;;;;;4929198;28;21019;-92
2022/07/27 05:30:41;;;;;;;6.27;5.70;;;18.60;99.90;;;;;;4926360;28;20314;-93
2022/07/27 05:33:07;;;;;;;5.37;4.93;;;18.60;99.90;;;;;;4919619;29;20450;-92
2022/07/27 05:35:34;;;;;;;6.63;5.80;;;18.50;99.90;;;;;;4916130;28;20440;-94
2022/07/27 05:38:05;;;;;;;7.13;5.70;;;18.50;99.90;;;;;;4936511;28;20629;-94
2022/07/27 05:40:37;;;;;;;6.07;5.67;;;18.40;99.90;;;;;;4922868;28;20625;-93
2022/07/27 05:43:04;;;;;;;6.33;5.70;;;18.50;99.90;;;;;;4925444;28;20604;-93
2022/07/27 05:45:31;;;;;;;5.60;5.10;;;18.60;99.90;;;;;;4925148;28;20447;-93
2022/07/27 05:47:58;;;;;;;6.47;5.87;;;18.80;99.90;;;;;;4934451;28;20604;-93
2022/07/27 05:50:24;;;;;;;6.03;5.43;;;19.00;99.90;;;;;;4932569;28;20187;-93
2022/07/27 05:52:57;;;;;;;6.83;6.20;;;18.80;99.90;;;;;;4934730;28;20915;-93
2022/07/27 05:55:54;;;;;;;;;;;;;;;;;;;;;
2022/07/27 05:58:25;;;;;;;6.23;5.73;;;19.00;99.90;;;;;;4927085;28;20435;-94
2022/07/27 06:00:55;;;;;;;6.40;5.80;;;19.00;99.90;;;;;;4923709;28;20473;-94
2022/07/27 06:03:33;;;;;;;6.80;6.13;;;19.10;99.90;;;;;;4924277;28;20449;-93
2022/07/27 06:08:44;;;;;;;6.07;5.57;;;19.00;99.90;;;;;;4934792;28;20465;-93
2022/07/27 06:11:09;;;;;;;6.43;5.90;;;19.30;99.90;;;;;;4915649;28;20968;-93
2022/07/27 06:14:44;;;;;;;6.10;5.70;;;19.40;99.90;;;;;;4933796;28;20463;-94
2022/07/27 06:17:14;;;;;;;6.13;5.73;;;19.40;99.90;;;;;;4929960;28;20474;-92
2022/07/27 06:19:49;;;;;;;7.00;5.97;;;19.40;99.90;;;;;;4918834;28;21015;-93
2022/07/27 06:22:18;;;;;;;6.70;6.10;;;19.30;99.90;;;;;;4920106;29;20454;-93
2022/07/27 06:24:46;;;;;;;7.90;6.00;;;19.30;99.90;;;;;;4924937;28;20492;-93
2022/07/27 06:27:18;;;;;;;7.37;6.47;;;19.20;99.90;;;;;;4934666;28;20478;-95
2022/07/27 06:29:44;;;;;;;7.63;6.87;;;19.10;99.90;;;;;;4934106;28;20841;-93
2022/07/27 06:32:15;;;;;;;6.23;5.60;;;19.10;99.90;;;;;;4926677;28;20955;-94
2022/07/27 06:34:51;;;;;;;7.67;6.07;;;19.10;99.90;;;;;;4917229;28;20206;-93
2022/07/27 06:37:42;;;;;;;6.20;5.70;;;19.30;99.90;;;;;;4934507;28;20572;-93
2022/07/27 06:40:12;;;;;;;7.37;5.93;;;19.70;99.90;;;;;;4934846;28;20888;-93
2022/07/27 06:43:09;;;;;;;7.07;6.10;;;19.70;99.90;;;;;;4926822;28;20814;-93
2022/07/27 06:45:52;;;;;;;7.63;7.03;;;19.70;99.90;;;;;;4924522;28;20509;-93
2022/07/27 06:48:20;;;;;;;6.90;6.30;;;19.50;99.90;;;;;;4927251;28;20450;-93
2022/07/27 06:50:52;;;;;;;6.67;6.27;;;19.60;99.90;;;;;;4929322;28;20472;-94
2022/07/27 06:56:44;;;;;;;6.33;5.73;;;20.30;99.90;;;;;;4939981;28;20562;-94
2022/07/27 06:59:18;;;;;;;6.27;5.87;;;20.70;99.90;;;;;;4930472;28;20972;-94
2022/07/27 07:01:49;;;;;;;6.60;6.00;;;20.60;99.90;;;;;;4928613;28;20343;-92
2022/07/27 07:04:16;;;;;;;6.57;6.03;;;20.40;99.90;;;;;;4928038;28;20479;-94
2022/07/27 07:06:43;;;;;;;7.10;6.60;;;20.40;99.90;;;;;;4928487;28;20468;-92
2022/07/27 07:09:09;;;;;;;10.83;5.63;;;20.00;99.90;;;;;;4906331;29;20451;-92
2022/07/27 07:11:34;;;;;;;6.40;6.00;;;19.70;99.90;;;;;;4935578;28;20439;-93
2022/07/27 07:14:02;;;;;;;6.33;5.73;;;19.70;99.90;;;;;;4932628;28;20736;-93
2022/07/27 07:17:13;;;;;;;7.33;6.50;;;19.90;99.90;;;;;;4936990;28;20218;-93
2022/07/27 07:19:39;;;;;;;7.80;6.53;;;20.40;99.90;;;;;;4946879;29;20446;-96
2022/07/27 07:22:15;;;;;;;6.40;5.90;;;20.30;99.90;;;;;;4947509;29;20442;-96
2022/07/27 07:24:41;;;;;;;6.20;5.40;;;20.60;99.90;;;;;;4949771;28;20183;-96
2022/07/27 07:27:06;;;;;;;6.50;5.90;;;20.50;99.90;;;;;;4952980;28;20658;-93
2022/07/27 07:30:05;;;;;;;;;;;;;;;;;;;;;
2022/07/27 07:32:45;;;;;;;7.10;6.50;;;21.00;99.90;;;;;;5012206;23;20506;-95
2022/07/27 07:35:11;;;;;;;5.67;5.27;;;21.20;99.70;;;;;;4936943;28;20443;-94
2022/07/27 07:37:50;;;;;;;6.00;5.60;;;21.60;99.70;;;;;;4931576;28;20858;-93
2022/07/27 07:40:16;;;;;;;7.60;5.90;;;21.90;98.80;;;;;;4935744;28;20826;-95
2022/07/27 07:42:51;;;;;;;6.30;5.80;;;21.60;98.30;;;;;;4936504;28;20854;-95
2022/07/27 07:45:17;;;;;;;5.83;5.43;;;21.20;99.20;;;;;;4938713;28;20451;-96
2022/07/27 07:47:51;;;;;;;5.97;5.47;;;21.10;99.60;;;;;;4955505;28;20442;-96
2022/07/27 07:50:40;;;;;;;6.53;5.93;;;21.50;99.40;;;;;;5155515;23;20524;-96
2022/07/27 07:53:13;;;;;;;7.13;6.53;;;21.60;98.50;;;;;;5125117;23;20531;-96
2022/07/27 07:55:39;;;;;;;7.00;6.40;;;21.90;98.10;;;;;;4967811;28;20453;-96
2022/07/27 07:58:06;;;;;;;5.83;5.23;;;21.30;98.50;;;;;;4988091;28;20445;-95
2022/07/27 08:00:31;;;;;;;9.93;6.43;;;21.20;99.60;;;;;;4986874;28;20245;-96
2022/07/27 08:02:57;;;;;;;6.60;6.07;;;21.50;99.30;;;;;;4975354;28;20444;-90
2022/07/27 08:05:25;;;;;;;6.90;6.43;;;21.90;99.10;;;;;;4973295;28;20186;-96
2022/07/27 08:08:16;;;;;;;6.77;6.20;;;22.00;97.80;;;;;;4959321;28;20197;-93
2022/07/27 08:11:09;;;;;;;6.67;6.10;;;21.80;98.80;;;;;;4947494;28;21008;-92
2022/07/27 08:13:35;;;;;;;6.93;6.00;;;22.20;98.30;;;;;;4950836;28;20462;-93
2022/07/27 08:16:04;;;;;;;6.63;6.03;;;22.70;97.70;;;;;;4959158;28;20468;-94
2022/07/27 08:18:30;;;;;;;8.00;6.73;;;22.70;96.20;;;;;;4953308;28;20649;-90
2022/07/27 08:20:55;;;;;;;5.50;5.10;;;22.60;96.80;;;;;;4962570;28;20520;-91
2022/07/27 08:23:21;;;;;;;5.10;4.70;;;23.00;97.20;;;;;;4957810;28;20715;-93
2022/07/27 08:25:47;;;;;;;9.63;6.07;;;23.50;96.00;;;;;;4959077;28;20196;-93
2022/07/27 08:28:13;;;;;;;5.60;5.20;;;23.80;95.10;;;;;;4975813;28;20281;-93
2022/07/27 08:30:42;;;;;;;7.20;6.70;;;23.80;94.80;;;;;;4964653;28;20277;-93
2022/07/27 08:33:28;;;;;;;;;;;;;;;;;;;;;
2022/07/27 08:35:58;;;;;;;5.60;5.20;;;22.80;96.80;;;;;;4960005;28;20484;-94
2022/07/27 08:38:31;;;;;;;5.67;5.30;;;23.00;96.60;;;;;;4960976;28;20443;-91
2022/07/27 08:41:01;;;;;;;5.50;5.10;;;23.30;95.80;;;;;;4957832;28;20445;-95
2022/07/27 08:43:26;;;;;;;6.30;5.90;;;23.30;94.70;;;;;;4954862;28;20174;-90
2022/07/27 08:45:55;;;;;;;8.27;6.10;;;23.10;94.90;;;;;;4962752;28;20965;-89
2022/07/27 08:48:22;;;;;;;6.63;6.10;;;22.60;95.90;;;;;;4962085;28;20182;-90
2022/07/27 08:50:48;;;;;;;6.80;6.30;;;22.70;95.50;;;;;;4966233;28;20476;-92
2022/07/27 08:53:15;;;;;;;6.87;6.10;;;22.60;95.20;;;;;;4956931;28;20453;-92
2022/07/27 08:56:07;;;;;;;6.53;5.97;;;21.80;96.40;;;;;;4961353;28;20733;-92
2022/07/27 08:58:32;;;;;;;5.97;5.47;;;21.90;96.90;;;;;;4960165;28;20441;-90
2022/07/27 09:00:58;;;;;;;6.20;5.70;;;22.20;96.70;;;;;;4959768;28;20526;-91
2022/07/27 09:03:23;;;;;;;7.20;6.70;;;22.20;96.20;;;;;;4971209;28;20209;-93
2022/07/27 09:05:57;;;;;;;6.20;5.60;;;22.50;96.70;;;;;;4961840;28;20190;-89
2022/07/27 09:08:26;;;;;;;7.27;6.57;;;22.60;96.50;;;;;;4951019;28;20700;-94
2022/07/27 09:10:57;;;;;;;8.20;5.53;;;22.70;96.10;;;;;;4959514;28;20449;-93
2022/07/27 09:13:32;;;;;;;7.50;6.83;;;22.90;95.90;;;;;;4960267;28;20659;-91
2022/07/27 09:16:04;;;;;;;6.00;5.50;;;22.80;95.70;;;;;;4957073;28;20469;-91
2022/07/27 09:18:33;;;;;;;7.20;6.70;;;23.00;95.70;;;;;;4960530;28;20443;-91
2022/07/27 09:21:11;;;;;;;7.47;6.97;;;22.70;96.30;;;;;;4962241;28;23518;-92
2022/07/27 09:23:52;;;;;;;7.23;6.40;;;22.40;96.40;;;;;;4966004;28;20441;-92
2022/07/27 09:26:26;;;;;;;7.90;7.20;;;22.30;96.50;;;;;;4964783;28;20496;-91
2022/07/27 09:29:13;;;;;;;7.30;6.60;;;22.00;96.70;;;;;;4964310;28;20444;-91
2022/07/27 09:31:44;;;;;;;6.60;6.20;;;22.10;97.00;;;;;;4970639;28;20826;-92
2022/07/27 09:34:11;;;;;;;6.80;6.30;;;22.50;97.20;;;;;;4962566;28;20449;-92
2022/07/27 09:37:02;;;;;;;7.50;6.80;;;22.80;96.90;;;;;;4971469;28;20482;-93
2022/07/27 09:39:31;;;;;;;7.33;6.57;;;22.70;96.10;;;;;;4965899;28;20446;-94
2022/07/27 09:42:00;;;;;;;6.33;5.73;;;22.90;96.40;;;;;;4966083;28;20501;-90
2022/07/27 09:44:41;;;;;;;7.00;6.60;;;23.60;95.40;;;;;;4965671;28;20451;-90
2022/07/27 09:47:30;;;;;;;6.60;6.10;;;23.40;94.10;;;;;;4957764;28;23247;-89
2022/07/27 10:13:26;;;;;;;6.57;5.97;;;24.00;94.70;;;;;;5099628;23;20506;-96
2022/07/27 10:15:57;;;;;;;6.83;6.30;;;24.20;93.20;;;;;;4913581;28;20487;-95
2022/07/27 10:19:13;;;;;;;6.70;6.20;;;23.50;93.70;;;;;;4928255;28;20460;-95
2022/07/27 10:21:45;;;;;;;7.33;6.73;;;23.20;95.00;;;;;;4923567;28;20474;-94
2022/07/27 10:24:48;;;;;;;7.07;6.40;;;22.80;94.60;;;;;;4928744;28;20891;-95
2022/07/27 10:27:27;;;;;;;6.00;5.50;;;22.90;94.80;;;;;;4932514;28;20486;-95
2022/07/27 10:29:56;;;;;;;7.43;6.47;;;23.70;95.20;;;;;;4959532;28;20442;-95
2022/07/27 10:32:43;;;;;;;6.60;6.00;;;24.60;93.80;;;;;;4938894;28;20499;-95
2022/07/27 10:35:31;;;;;;;6.80;6.20;;;25.40;93.10;;;;;;4941573;28;20781;-96
2022/07/27 10:38:09;;;;;;;6.27;5.77;;;26.50;91.40;;;;;;4955930;28;20486;-96
2022/07/27 10:40:37;;;;;;;6.07;5.53;;;26.30;89.70;;;;;;4945835;28;20444;-95
2022/07/27 10:43:19;;;;;;;6.37;5.87;;;25.00;90.80;;;;;;4940383;28;20462;-96
2022/07/27 10:46:05;;;;;;;6.33;5.80;;;24.70;91.70;;;;;;4968975;28;20759;-95
2022/07/27 10:48:52;;;;;;;6.53;6.03;;;24.60;91.70;;;;;;4944238;28;20454;-96
2022/07/27 10:51:33;;;;;;;8.57;6.47;;;24.70;92.00;;;;;;4960695;28;20442;-96
2022/07/27 10:54:26;;;;;;;6.13;5.63;;;24.80;91.70;;;;;;4985533;28;20945;-96
2022/07/27 10:57:09;;;;;;;6.57;5.40;;;25.30;92.20;;;;;;4955920;28;20507;-96
2022/07/27 10:59:43;;;;;;;6.30;5.67;;;25.30;91.20;;;;;;4994407;28;20453;-96
2022/07/27 11:02:23;;;;;;;;;;;;;;;;;;;;;
2022/07/27 11:05:33;;;;;;;;;;;;;;;;;;;;;
2022/07/27 11:08:08;;;;;;;6.87;6.13;;;24.10;91.90;;;;;;4972739;28;20720;-96
2022/07/27 11:10:45;;;;;;;5.97;5.57;;;24.20;91.50;;;;;;4958790;28;20427;-96
2022/07/27 11:13:25;;;;;;;5.97;5.43;;;24.30;92.00;;;;;;4961526;28;20453;-96
2022/07/27 11:16:32;;;;;;;6.53;6.03;;;24.00;92.00;;;;;;4957618;28;20465;-96
2022/07/27 11:23:05;;;;;;;;;;;;;;;;;;;;;
2022/07/27 13:56:27;;;;;;;7.97;3.00;;;29.70;60.80;;;;;;5561516;23;20470;-93
2022/07/27 13:58:52;;;;;;;7.90;3.43;;;29.30;61.20;;;;;;4926163;28;20485;-92
2022/07/27 14:01:18;;;;;;;2.73;2.60;;;29.80;61.90;;;;;;4944135;28;20432;-92
2022/07/27 14:03:43;;;;;;;3.73;2.60;;;29.80;59.00;;;;;;4938354;28;20202;-92
2022/07/27 14:06:09;;;;;;;2.80;2.60;;;31.10;60.20;;;;;;4955667;28;20691;-92
2022/07/27 14:08:35;;;;;;;4.53;3.20;;;32.90;58.00;;;;;;4941074;28;20214;-91
2022/07/27 14:11:01;;;;;;;3.80;3.10;;;31.70;56.60;;;;;;4929303;28;20186;-93
2022/07/27 14:13:28;;;;;;;3.03;2.40;;;32.90;55.30;;;;;;4955044;28;20180;-92
2022/07/27 14:15:53;;;;;;;2.47;2.27;;;35.90;50.30;;;;;;4933026;28;20498;-94
2022/07/27 14:18:19;;;;;;;4.93;2.37;;;36.70;48.90;;;;;;4939423;28;20466;-93
2022/07/27 14:20:45;;;;;;;4.70;2.43;;;39.40;44.10;;;;;;4973101;28;20237;-94
2022/07/27 14:23:10;;;;;;;3.63;2.60;;;35.70;41.80;;;;;;4934310;28;20599;-93
2022/07/27 14:25:36;;;;;;;4.90;2.60;;;34.40;45.80;;;;;;4937208;28;20228;-94
2022/07/27 14:28:02;;;;;;;3.57;2.70;;;35.70;44.70;;;;;;4937066;28;20186;-92
2022/07/27 14:30:28;;;;;;;4.97;2.63;;;34.80;44.50;;;;;;4947549;28;20262;-92
2022/07/27 14:32:54;;;;;;;5.20;3.70;;;31.30;48.30;;;;;;4933993;28;20626;-92
2022/07/27 14:35:20;;;;;;;3.30;2.20;;;30.60;51.40;;;;;;4945025;28;20446;-93
2022/07/27 14:37:47;;;;;;;2.43;2.23;;;33.80;49.40;;;;;;4924963;28;20989;-92
2022/07/27 14:40:14;;;;;;;2.50;2.30;;;37.00;43.10;;;;;;4933129;28;20478;-94
2022/07/27 14:42:40;;;;;;;2.23;2.13;;;36.70;41.50;;;;;;4934087;28;20473;-94
2022/07/27 14:45:07;;;;;;;2.10;2.00;;;39.80;39.10;;;;;;4928992;28;21125;-92
2022/07/27 14:47:32;;;;;;;2.10;1.90;;;39.90;39.60;;;;;;4931546;28;20796;-91
2022/07/27 14:49:58;;;;;;;5.13;2.20;;;37.40;38.80;;;;;;4939760;28;20445;-94
2022/07/27 14:52:24;;;;;;;2.67;2.33;;;34.80;44.20;;;;;;4927190;28;20800;-90
2022/07/27 14:54:49;;;;;;;2.90;2.60;;;30.60;46.60;;;;;;4935196;28;20183;-94
2022/07/27 14:57:15;;;;;;;2.73;2.20;;;27.80;53.60;;;;;;4930984;28;20760;-91
2022/07/27 14:59:42;;;;;;;2.50;2.30;;;28.60;54.90;;;;;;4917950;28;20187;-91
2022/07/27 15:02:08;;;;;;;2.70;2.50;;;29.60;52.50;;;;;;4949270;28;20465;-94
2022/07/27 15:04:34;;;;;;;2.60;2.43;;;31.10;53.00;;;;;;4944187;28;20447;-91
2022/07/27 15:06:59;;;;;;;2.60;2.40;;;30.70;50.50;;;;;;4928456;28;20265;-92
2022/07/27 15:09:40;;;;;;;2.90;2.30;;;31.70;50.10;;;;;;4920114;28;20523;-94
2022/07/27 15:12:21;;;;;;;2.50;2.30;;;34.30;47.20;;;;;;4921882;28;20450;-91
2022/07/27 15:14:47;;;;;;;2.50;2.30;;;36.40;43.60;;;;;;4938066;28;20457;-94
2022/07/27 15:17:12;;;;;;;2.10;2.00;;;35.60;44.40;;;;;;4936119;28;20496;-89
2022/07/27 15:19:50;;;;;;;2.00;1.90;;;37.00;42.50;;;;;;4927751;28;20183;-92
2022/07/27 15:22:19;;;;;;;3.70;2.53;;;34.90;42.70;;;;;;4926729;28;20194;-92
2022/07/27 15:24:50;;;;;;;2.90;2.37;;;34.90;45.10;;;;;;4914238;28;20442;-91
2022/07/27 15:27:28;;;;;;;4.63;2.57;;;34.90;42.20;;;;;;4917702;28;20958;-92
2022/07/27 15:29:54;;;;;;;3.20;2.67;;;33.30;45.40;;;;;;4923505;28;20561;-91
2022/07/27 15:32:20;;;;;;;2.80;2.37;;;32.10;46.20;;;;;;4917652;28;20508;-93
2022/07/27 15:34:51;;;;;;;4.07;2.53;;;31.20;49.30;;;;;;4923794;28;20197;-91
2022/07/27 15:37:18;;;;;;;2.20;2.10;;;31.40;49.00;;;;;;4916853;28;20218;-90
2022/07/27 15:39:49;;;;;;;5.23;2.30;;;32.30;48.60;;;;;;4917298;28;20485;-91
2022/07/27 15:42:14;;;;;;;2.67;2.47;;;32.20;47.90;;;;;;4913685;28;20446;-91
2022/07/27 15:44:46;;;;;;;2.63;2.43;;;34.30;44.70;;;;;;4915176;28;20732;-95
2022/07/27 15:47:11;;;;;;;2.77;2.10;;;33.50;45.20;;;;;;4917665;28;20218;-89
2022/07/27 15:49:37;;;;;;;3.00;2.20;;;35.00;44.30;;;;;;4917242;28;20877;-91
2022/07/27 15:52:02;;;;;;;2.23;2.00;;;37.60;42.30;;;;;;4921715;28;20224;-92
2022/07/27 15:54:28;;;;;;;3.63;2.20;;;37.10;38.80;;;;;;4920921;28;20214;-92
2022/07/27 15:56:55;;;;;;;26.10;23.97;;;36.00;40.80;;;;;;4923819;28;20236;-92
2022/07/27 15:59:20;;;;;;;4.57;2.47;;;33.90;43.70;;;;;;4924090;28;20210;-90
2022/07/27 16:01:46;;;;;;;2.70;2.33;;;32.90;45.40;;;;;;4921279;28;20454;-92
2022/07/27 16:04:12;;;;;;;7.10;6.50;;;31.80;46.70;;;;;;4939068;28;20187;-90
2022/07/27 16:06:38;;;;;;;4.33;3.93;;;31.80;47.70;;;;;;4927961;28;20208;-90
2022/07/27 16:09:04;;;;;;;2.50;2.30;;;33.40;46.60;;;;;;4927662;28;20246;-91
2022/07/27 16:11:29;;;;;;;5.60;5.17;;;35.00;43.40;;;;;;4906055;28;20233;-91
2022/07/27 16:13:56;;;;;;;4.50;3.77;;;36.50;42.30;;;;;;4919925;28;20550;-91
2022/07/27 16:16:24;;;;;;;3.93;2.37;;;38.00;39.20;;;;;;4921474;28;20222;-93
2022/07/27 16:18:53;;;;;;;2.23;2.10;;;37.00;38.50;;;;;;4923668;28;20892;-91
2022/07/27 16:21:20;;;;;;;3.03;2.00;;;32.80;43.60;;;;;;4919949;28;20446;-91
2022/07/27 16:23:46;;;;;;;2.43;2.23;;;32.10;46.30;;;;;;4919586;28;20446;-92
2022/07/27 16:26:12;;;;;;;8.10;3.40;;;32.70;46.20;;;;;;4925363;28;20473;-92
2022/07/27 16:28:41;;;;;;;4.83;2.13;;;35.90;42.70;;;;;;4921184;28;20537;-92
2022/07/27 16:31:09;;;;;;;2.90;2.27;;;34.80;41.80;;;;;;4934015;28;20338;-93
2022/07/27 16:33:35;;;;;;;2.17;2.07;;;34.30;43.60;;;;;;4915996;28;20446;-93
2022/07/27 16:36:01;;;;;;;6.40;4.60;;;35.30;40.80;;;;;;4925920;28;20446;-92
2022/07/27 16:38:26;;;;;;;6.40;5.90;;;32.80;44.90;;;;;;4927574;28;20446;-92
2022/07/27 16:40:52;;;;;;;4.20;3.90;;;34.50;44.40;;;;;;4931379;28;20574;-93
2022/07/27 16:43:18;;;;;;;2.50;2.30;;;32.20;45.10;;;;;;4930339;28;20358;-93
2022/07/27 16:45:43;;;;;;;5.13;2.10;;;31.50;46.60;;;;;;4920497;28;21751;-93
2022/07/27 16:48:50;;;;;;;9.27;5.40;;;33.50;47.10;;;;;;4916788;28;20191;-93
2022/07/27 16:51:16;;;;;;;3.20;2.90;;;36.10;42.30;;;;;;4913743;28;21196;-93
2022/07/27 16:53:44;;;;;;;3.13;2.30;;;37.80;39.40;;;;;;4918372;28;20447;-90
2022/07/27 16:56:10;;;;;;;3.60;2.10;;;38.20;38.50;;;;;;4910938;28;20214;-92
2022/07/27 16:58:36;;;;;;;7.47;2.30;;;38.70;37.90;;;;;;4919659;28;20458;-91
2022/07/27 17:01:05;;;;;;;3.83;2.43;;;38.80;37.10;;;;;;4916904;28;20430;-95
2022/07/27 17:03:31;;;;;;;3.57;2.60;;;37.30;37.40;;;;;;4925100;28;20317;-92
2022/07/27 17:05:56;;;;;;;2.90;2.57;;;33.30;41.60;;;;;;4918134;28;20913;-91
2022/07/27 17:08:22;;;;;;;3.20;2.67;;;28.50;49.40;;;;;;4907796;28;20202;-90
2022/07/27 17:10:50;;;;;;;2.20;2.10;;;27.10;53.30;;;;;;4922136;28;20183;-89
2022/07/27 17:13:16;;;;;;;2.30;1.87;;;29.30;51.40;;;;;;4929419;28;20482;-90
2022/07/27 17:15:42;;;;;;;2.03;1.93;;;32.60;47.80;;;;;;4916146;28;20474;-91
2022/07/27 17:18:07;;;;;;;5.10;1.80;;;34.70;43.00;;;;;;4915828;28;20576;-91
2022/07/27 17:20:33;;;;;;;2.73;2.10;;;33.00;45.30;;;;;;4920283;28;20275;-91
2022/07/27 17:22:58;;;;;;;6.30;2.40;;;34.30;44.30;;;;;;4914201;28;20198;-89
2022/07/27 17:25:34;;;;;;;2.60;2.37;;;34.90;42.40;;;;;;4921350;28;20185;-92
2022/07/27 17:28:00;;;;;;;7.33;6.70;;;33.00;43.90;;;;;;4920114;28;20226;-93
2022/07/27 17:30:25;;;;;;;6.27;5.77;;;33.20;45.20;;;;;;4932421;28;20540;-92
2022/07/27 17:32:52;;;;;;;5.80;5.30;;;34.20;43.50;;;;;;4920756;28;20187;-91
2022/07/27 17:35:17;;;;;;;2.00;1.90;;;35.10;42.30;;;;;;4916155;28;20183;-94
2022/07/27 17:37:44;;;;;;;30.93;28.70;;;35.60;41.80;;;;;;4921597;28;20494;-92
2022/07/27 17:40:11;;;;;;;13.50;12.53;;;34.70;42.20;;;;;;4914205;28;20187;-92
2022/07/27 17:42:36;;;;;;;2.07;1.97;;;34.70;42.00;;;;;;4920890;28;20454;-91
2022/07/27 17:45:02;;;;;;;2.77;1.80;;;33.80;42.90;;;;;;4921136;28;20441;-91
2022/07/27 17:47:28;;;;;;;2.00;1.90;;;34.30;42.90;;;;;;4916597;28;20394;-91
2022/07/27 17:49:54;;;;;;;2.03;1.83;;;34.70;42.70;;;;;;4913550;28;20270;-92
2022/07/27 17:52:21;;;;;;;1.83;1.73;;;34.80;42.00;;;;;;4920233;28;20195;-90
2022/07/27 17:54:46;;;;;;;3.07;2.50;;;35.00;41.70;;;;;;4911950;28;20454;-93
2022/07/27 17:57:12;;;;;;;3.30;1.73;;;34.20;42.20;;;;;;4913314;28;20525;-91
2022/07/27 17:59:38;;;;;;;2.60;1.90;;;33.30;43.40;;;;;;4914169;28;20763;-91
2022/07/27 18:02:04;;;;;;;3.30;2.83;;;32.70;44.70;;;;;;4915935;28;20191;-91
2022/07/27 18:04:32;;;;;;;3.10;2.00;;;31.50;45.70;;;;;;4921585;28;20187;-92
2022/07/27 18:06:58;;;;;;;2.10;2.00;;;30.30;47.40;;;;;;4923403;28;20387;-94
2022/07/27 18:09:25;;;;;;;2.93;2.23;;;30.00;48.60;;;;;;4918839;28;20980;-96
2022/07/27 18:11:58;;;;;;;2.80;2.30;;;29.50;49.20;;;;;;4919992;28;20796;-95
2022/07/27 18:14:24;;;;;;;2.10;2.00;;;28.40;50.80;;;;;;4930229;28;20510;-91
2022/07/27 18:16:51;;;;;;;2.77;2.57;;;27.40;53.10;;;;;;4927039;28;20478;-96
2022/07/27 18:19:19;;;;;;;13.87;12.47;;;26.50;54.50;;;;;;4918504;28;20187;-94
2022/07/27 18:21:46;;;;;;;5.77;4.90;;;25.90;56.60;;;;;;4921754;28;20525;-91
2022/07/27 18:24:15;;;;;;;2.30;2.20;;;25.70;57.30;;;;;;4938007;28;20942;-93
2022/07/27 18:26:48;;;;;;;8.63;6.53;;;25.40;57.80;;;;;;4933255;28;20534;-94
2022/07/27 18:29:31;;;;;;;5.17;4.77;;;25.10;58.30;;;;;;4935308;28;20439;-94
2022/07/27 18:32:00;;;;;;;5.13;2.70;;;25.00;59.60;;;;;;4936079;28;20446;-95
2022/07/27 18:34:26;;;;;;;5.43;2.67;;;24.70;59.60;;;;;;4968705;28;21064;-96
2022/07/27 18:36:52;;;;;;;28.57;4.77;;;24.50;60.90;;;;;;4941703;28;20463;-96
2022/07/27 18:40:22;;;;;;;14.13;3.10;;;24.30;62.20;;;;;;4935997;28;21575;-96
2022/07/27 18:43:35;;;;;;;2.40;2.20;;;24.00;63.10;;;;;;4943924;28;20530;-95
2022/07/27 18:46:12;;;;;;;9.33;2.80;;;23.60;64.00;;;;;;4941676;28;20823;-95
2022/07/27 18:48:54;;;;;;;3.47;2.30;;;23.40;64.80;;;;;;4947101;28;20450;-95
2022/07/27 18:51:28;;;;;;;38.50;6.30;;;23.20;65.20;;;;;;4939556;28;20458;-94
2022/07/27 18:53:56;;;;;;;24.03;4.73;;;23.10;65.60;;;;;;4948897;28;20859;-93
2022/07/27 18:56:22;;;;;;;7.87;3.00;;;23.10;66.60;;;;;;4939895;28;20484;-96
2022/07/27 18:58:48;;;;;;;2.30;2.20;;;23.10;67.10;;;;;;4943755;28;21647;-96
2022/07/27 19:01:16;;;;;;;6.03;2.67;;;23.10;67.50;;;;;;4939653;28;20278;-94
2022/07/27 19:03:44;;;;;;;4.37;2.73;;;23.10;68.30;;;;;;4957115;28;20171;-96
2022/07/27 19:06:10;;;;;;;7.00;2.33;;;23.00;68.90;;;;;;4959306;28;20787;-95
2022/07/27 19:08:38;;;;;;;2.67;2.47;;;22.90;68.30;;;;;;4958448;28;20447;-96
2022/07/27 19:11:09;;;;;;;4.77;2.10;;;23.00;68.80;;;;;;4945233;28;20226;-96
2022/07/27 19:13:40;;;;;;;3.70;2.37;;;22.90;68.00;;;;;;4947816;28;20454;-96
2022/07/27 19:16:16;;;;;;;2.87;2.30;;;23.00;68.10;;;;;;4946559;28;20963;-93
2022/07/27 19:18:48;;;;;;;3.00;2.40;;;23.00;67.90;;;;;;4977694;28;20481;-95
2022/07/27 19:21:15;;;;;;;2.23;2.13;;;23.00;68.10;;;;;;4946299;28;20451;-89
2022/07/27 19:23:44;;;;;;;8.50;7.63;;;23.00;68.20;;;;;;4937528;28;20444;-91
2022/07/27 19:26:12;;;;;;;7.07;6.57;;;23.00;68.50;;;;;;4931850;28;20447;-90
2022/07/27 19:28:40;;;;;;;3.60;2.73;;;22.90;69.70;;;;;;4931862;28;20456;-88
2022/07/27 19:31:06;;;;;;;7.10;2.70;;;22.80;70.20;;;;;;4927793;28;20458;-93
2022/07/27 19:33:31;;;;;;;2.50;2.30;;;22.70;71.60;;;;;;4930281;28;20448;-92
2022/07/27 19:35:58;;;;;;;4.43;2.50;;;22.60;71.50;;;;;;4932938;28;20505;-95
2022/07/27 19:38:24;;;;;;;2.40;2.17;;;22.60;71.50;;;;;;4933501;28;20659;-93
2022/07/27 19:40:52;;;;;;;3.63;2.40;;;22.50;73.30;;;;;;4938365;28;20537;-92
2022/07/27 19:43:18;;;;;;;3.67;2.47;;;22.30;73.70;;;;;;4936032;28;20608;-95
2022/07/27 19:46:20;;;;;;;2.60;2.13;;;22.30;75.30;;;;;;4955716;28;20547;-96
2022/07/27 19:48:45;;;;;;;2.23;2.10;;;22.20;77.60;;;;;;4940861;28;20445;-94
2022/07/27 19:51:11;;;;;;;3.87;2.60;;;22.10;78.50;;;;;;4945661;28;21177;-96
2022/07/27 19:53:39;;;;;;;2.50;2.30;;;21.90;79.60;;;;;;4940120;28;20183;-96
2022/07/27 20:14:44;;;;;;;5.30;2.60;;;22.10;77.30;;;;;;4304354;23;20588;-93
2022/07/27 20:17:10;;;;;;;2.07;1.97;;;22.00;76.90;;;;;;4919497;29;20505;-92
2022/07/27 20:19:37;;;;;;;2.40;2.20;;;22.00;76.80;;;;;;4915203;29;20954;-95
2022/07/27 20:22:12;;;;;;;4.17;2.30;;;22.00;75.80;;;;;;4922438;29;20392;-92
2022/07/27 20:24:38;;;;;;;3.83;2.13;;;22.00;75.70;;;;;;4913771;29;20506;-88
2022/07/27 20:27:16;;;;;;;2.90;2.23;;;21.90;76.20;;;;;;4937229;28;20282;-89
2022/07/27 20:29:41;;;;;;;2.93;2.20;;;21.90;77.30;;;;;;4937881;28;20645;-89
2022/07/27 20:32:15;;;;;;;2.97;2.13;;;21.80;76.30;;;;;;4920975;29;20711;-90
2022/07/27 20:34:40;;;;;;;2.50;2.30;;;21.70;77.90;;;;;;4921874;29;20290;-91
2022/07/27 20:37:06;;;;;;;2.50;2.30;;;21.60;78.50;;;;;;4922967;29;20487;-91
2022/07/27 20:39:32;;;;;;;4.30;2.17;;;21.60;79.60;;;;;;4919347;29;20200;-90
2022/07/27 20:41:58;;;;;;;2.40;2.20;;;21.60;78.40;;;;;;4920675;29;20211;-89
2022/07/27 20:44:26;;;;;;;2.40;2.13;;;21.60;78.90;;;;;;4915626;29;21228;-91
2022/07/27 20:46:51;;;;;;;4.27;2.60;;;21.50;80.10;;;;;;4920419;29;20179;-90
2022/07/27 20:49:17;;;;;;;2.47;2.27;;;21.40;83.00;;;;;;4945117;28;20478;-91
2022/07/27 20:51:42;;;;;;;4.53;2.30;;;21.20;84.10;;;;;;4916814;29;21073;-92
2022/07/27 20:54:08;;;;;;;4.73;2.57;;;21.00;85.30;;;;;;4919875;29;20188;-90
2022/07/27 20:56:33;;;;;;;5.03;2.13;;;20.90;85.90;;;;;;4932428;28;20230;-88
2022/07/27 20:59:15;;;;;;;2.70;2.50;;;20.90;86.60;;;;;;4917517;29;20192;-90
2022/07/27 21:01:41;;;;;;;5.67;2.43;;;20.90;85.20;;;;;;4926822;28;20197;-92
2022/07/27 21:04:09;;;;;;;5.03;2.60;;;21.00;84.60;;;;;;4915152;29;20451;-89
2022/07/27 21:06:36;;;;;;;6.00;2.50;;;21.10;81.70;;;;;;4916196;29;20276;-90
2022/07/27 21:09:03;;;;;;;7.33;2.30;;;21.20;83.10;;;;;;4910513;29;20443;-89
2022/07/27 21:11:29;;;;;;;10.90;2.73;;;21.30;81.60;;;;;;4930227;28;20953;-90
2022/07/27 21:13:55;;;;;;;8.47;3.60;;;21.20;84.80;;;;;;4941439;28;20526;-89
2022/07/27 21:16:20;;;;;;;3.70;2.20;;;21.10;87.30;;;;;;4910812;29;20212;-89
2022/07/27 21:18:46;;;;;;;3.00;2.23;;;20.80;88.40;;;;;;4933491;28;20206;-90
2022/07/27 21:21:11;;;;;;;3.83;2.60;;;20.60;89.20;;;;;;4912670;29;20653;-89
2022/07/27 21:26:21;;;;;;;2.80;2.60;;;20.40;90.60;;;;;;4921584;29;20320;-90
2022/07/27 21:28:46;;;;;;;3.10;2.47;;;20.30;90.70;;;;;;4920932;29;20456;-90
2022/07/27 21:31:15;;;;;;;3.00;2.20;;;20.10;90.80;;;;;;4932512;28;20192;-91
2022/07/27 21:33:42;;;;;;;2.60;2.37;;;20.10;90.70;;;;;;4934883;28;20195;-91
2022/07/27 21:36:08;;;;;;;2.67;2.47;;;20.10;91.50;;;;;;4920384;29;20448;-90
2022/07/27 21:38:40;;;;;;;2.30;2.20;;;19.90;91.80;;;;;;4917271;29;20458;-92
2022/07/27 21:41:25;;;;;;;3.43;2.47;;;19.70;92.50;;;;;;4917296;29;20283;-90
2022/07/27 21:44:18;;;;;;;3.73;2.77;;;19.70;93.20;;;;;;4916590;29;20523;-90